sensor_id;sensor_type;location;lat;lon;timestamp;temperature;humidity
20833;DHT22;56075;51.264;7.150;2023-05-02T00:00:19;12.00;99.90
20833;DHT22;56075;51.264;7.150;2023-05-02T00:02:51;11.90;99.90
20833;DHT22;56075;51.264;7.150;2023-05-02T00:05:22;11.60;99.90
20833;DHT22;56075;51.264;7.150;2023-05-02T00:07:54;11.70;99.90
20833;DHT22;56075;51.264;7.150;2023-05-02T00:10:26;11.70;99.90
20833;DHT22;56075;51.264;7.150;2023-05-02T00:12:57;11.50;99.90
20833;DHT22;56075;51.264;7.150;2023-05-02T00:15:28;11.40;99.90
20833;DHT22;56075;51.264;7.150;2023-05-02T00:17:59;11.50;99.90
20833;DHT22;56075;51.264;7.150;2023-05-02T00:23:03;11.50;99.90
20833;DHT22;56075;51.264;7.150;2023-05-02T00:28:05;11.40;99.90
20833;DHT22;56075;51.264;7.150;2023-05-02T00:30:42;11.20;99.90
20833;DHT22;56075;51.264;7.150;2023-05-02T00:33:13;11.30;99.90
20833;DHT22;56075;51.264;7.150;2023-05-02T00:35:45;11.20;99.90
20833;DHT22;56075;51.264;7.150;2023-05-02T00:38:16;11.30;99.90
20833;DHT22;56075;51.264;7.150;2023-05-02T00:40:49;11.20;99.90
20833;DHT22;56075;51.264;7.150;2023-05-02T00:43:22;11.20;99.90
20833;DHT22;56075;51.264;7.150;2023-05-02T00:45:53;11.30;99.90
20833;DHT22;56075;51.264;7.150;2023-05-02T00:48:25;11.40;99.90
20833;DHT22;56075;51.264;7.150;2023-05-02T00:50:57;11.10;99.90
20833;DHT22;56075;51.264;7.150;2023-05-02T00:53:28;11.20;99.90
20833;DHT22;56075;51.264;7.150;2023-05-02T00:56:00;11.20;99.90
20833;DHT22;56075;51.264;7.150;2023-05-02T00:58:32;11.30;99.90
20833;DHT22;56075;51.264;7.150;2023-05-02T01:01:15;11.40;99.90
20833;DHT22;56075;51.264;7.150;2023-05-02T01:09:38;11.30;99.90
20833;DHT22;56075;51.264;7.150;2023-05-02T01:12:27;11.60;99.90
20833;DHT22;56075;51.264;7.150;2023-05-02T01:17:37;11.50;99.90
20833;DHT22;56075;51.264;7.150;2023-05-02T01:20:13;11.60;99.90
20833;DHT22;56075;51.264;7.150;2023-05-02T01:28:28;11.50;99.90
20833;DHT22;56075;51.264;7.150;2023-05-02T01:31:03;11.40;99.90
20833;DHT22;56075;51.264;7.150;2023-05-02T01:33:35;11.40;99.90
20833;DHT22;56075;51.264;7.150;2023-05-02T01:36:08;11.30;99.90
20833;DHT22;56075;51.264;7.150;2023-05-02T01:38:41;11.20;99.90
20833;DHT22;56075;51.264;7.150;2023-05-02T01:41:14;11.40;99.90
20833;DHT22;56075;51.264;7.150;2023-05-02T01:43:46;11.30;99.90
20833;DHT22;56075;51.264;7.150;2023-05-02T01:48:50;11.00;99.90
20833;DHT22;56075;51.264;7.150;2023-05-02T01:51:26;11.10;99.90
20833;DHT22;56075;51.264;7.150;2023-05-02T01:54:05;11.00;99.90
20833;DHT22;56075;51.264;7.150;2023-05-02T01:56:38;11.10;99.90
20833;DHT22;56075;51.264;7.150;2023-05-02T01:59:16;11.20;99.90
20833;DHT22;56075;51.264;7.150;2023-05-02T02:01:50;11.10;99.90
20833;DHT22;56075;51.264;7.150;2023-05-02T02:04:23;11.00;99.90
20833;DHT22;56075;51.264;7.150;2023-05-02T02:07:00;11.10;99.90
20833;DHT22;56075;51.264;7.150;2023-05-02T02:09:32;11.10;99.90
20833;DHT22;56075;51.264;7.150;2023-05-02T02:12:30;11.20;99.90
20833;DHT22;56075;51.264;7.150;2023-05-02T02:15:16;11.30;99.90
20833;DHT22;56075;51.264;7.150;2023-05-02T02:18:10;11.20;99.90
20833;DHT22;56075;51.264;7.150;2023-05-02T02:20:44;11.00;99.90
20833;DHT22;56075;51.264;7.150;2023-05-02T02:23:18;11.10;99.90
20833;DHT22;56075;51.264;7.150;2023-05-02T02:25:51;11.10;99.90
20833;DHT22;56075;51.264;7.150;2023-05-02T02:28:24;10.90;99.90
20833;DHT22;56075;51.264;7.150;2023-05-02T02:30:55;11.00;99.90
20833;DHT22;56075;51.264;7.150;2023-05-02T02:33:29;11.00;99.90
20833;DHT22;56075;51.264;7.150;2023-05-02T02:36:17;11.10;99.90
20833;DHT22;56075;51.264;7.150;2023-05-02T02:42:15;11.00;99.90
20833;DHT22;56075;51.264;7.150;2023-05-02T02:44:55;11.00;99.90
20833;DHT22;56075;51.264;7.150;2023-05-02T02:47:46;11.10;99.90
20833;DHT22;56075;51.264;7.150;2023-05-02T02:50:23;10.90;99.90
20833;DHT22;56075;51.264;7.150;2023-05-02T02:53:03;11.10;99.90
20833;DHT22;56075;51.264;7.150;2023-05-02T02:56:05;11.10;99.90
20833;DHT22;56075;51.264;7.150;2023-05-02T02:59:22;10.70;99.90
20833;DHT22;56075;51.264;7.150;2023-05-02T03:01:47;11.00;99.90
20833;DHT22;56075;51.264;7.150;2023-05-02T03:04:21;11.10;99.90
20833;DHT22;56075;51.264;7.150;2023-05-02T03:06:53;10.90;99.90
20833;DHT22;56075;51.264;7.150;2023-05-02T03:09:25;10.90;99.90
20833;DHT22;56075;51.264;7.150;2023-05-02T03:12:00;10.80;99.90
20833;DHT22;56075;51.264;7.150;2023-05-02T03:14:31;11.00;99.90
20833;DHT22;56075;51.264;7.150;2023-05-02T03:17:02;10.80;99.90
20833;DHT22;56075;51.264;7.150;2023-05-02T03:19:34;10.80;99.90
20833;DHT22;56075;51.264;7.150;2023-05-02T03:22:06;10.80;99.90
20833;DHT22;56075;51.264;7.150;2023-05-02T03:24:39;10.70;99.90
20833;DHT22;56075;51.264;7.150;2023-05-02T03:27:11;10.70;99.90
20833;DHT22;56075;51.264;7.150;2023-05-02T03:29:45;10.90;99.90
20833;DHT22;56075;51.264;7.150;2023-05-02T03:32:18;10.90;99.90
20833;DHT22;56075;51.264;7.150;2023-05-02T03:34:49;10.80;99.90
20833;DHT22;56075;51.264;7.150;2023-05-02T03:37:20;10.40;99.90
20833;DHT22;56075;51.264;7.150;2023-05-02T03:39:52;10.80;99.90
20833;DHT22;56075;51.264;7.150;2023-05-02T03:42:23;10.70;99.90
20833;DHT22;56075;51.264;7.150;2023-05-02T03:44:54;10.90;99.90
20833;DHT22;56075;51.264;7.150;2023-05-02T03:47:27;10.60;99.90
20833;DHT22;56075;51.264;7.150;2023-05-02T03:49:58;10.70;99.90
20833;DHT22;56075;51.264;7.150;2023-05-02T03:55:04;10.80;99.90
20833;DHT22;56075;51.264;7.150;2023-05-02T03:57:38;10.50;99.90
20833;DHT22;56075;51.264;7.150;2023-05-02T04:00:10;10.80;99.90
20833;DHT22;56075;51.264;7.150;2023-05-02T04:02:48;10.80;99.90
20833;DHT22;56075;51.264;7.150;2023-05-02T04:05:23;10.80;99.90
20833;DHT22;56075;51.264;7.150;2023-05-02T04:07:56;10.90;99.90
20833;DHT22;56075;51.264;7.150;2023-05-02T04:10:27;10.90;99.90
20833;DHT22;56075;51.264;7.150;2023-05-02T04:13:02;10.90;99.90
20833;DHT22;56075;51.264;7.150;2023-05-02T04:15:36;10.80;99.90
20833;DHT22;56075;51.264;7.150;2023-05-02T04:18:07;10.80;99.90
20833;DHT22;56075;51.264;7.150;2023-05-02T04:20:42;11.00;99.90
20833;DHT22;56075;51.264;7.150;2023-05-02T04:23:17;11.00;99.90
20833;DHT22;56075;51.264;7.150;2023-05-02T04:25:54;10.80;99.90
20833;DHT22;56075;51.264;7.150;2023-05-02T04:28:29;11.00;99.90
20833;DHT22;56075;51.264;7.150;2023-05-02T04:31:01;11.10;99.90
20833;DHT22;56075;51.264;7.150;2023-05-02T04:33:34;11.10;99.90
20833;DHT22;56075;51.264;7.150;2023-05-02T04:38:38;11.00;99.90
20833;DHT22;56075;51.264;7.150;2023-05-02T04:41:10;10.90;99.90
20833;DHT22;56075;51.264;7.150;2023-05-02T04:43:47;11.20;99.90
20833;DHT22;56075;51.264;7.150;2023-05-02T04:46:19;11.20;99.90
20833;DHT22;56075;51.264;7.150;2023-05-02T04:48:50;11.20;99.90
20833;DHT22;56075;51.264;7.150;2023-05-02T04:51:21;11.10;99.90
20833;DHT22;56075;51.264;7.150;2023-05-02T04:53:54;11.20;99.90
20833;DHT22;56075;51.264;7.150;2023-05-02T04:56:26;11.40;99.90
20833;DHT22;56075;51.264;7.150;2023-05-02T04:58:57;11.10;99.90
20833;DHT22;56075;51.264;7.150;2023-05-02T05:01:28;11.10;99.90
20833;DHT22;56075;51.264;7.150;2023-05-02T05:04:01;11.20;99.90
20833;DHT22;56075;51.264;7.150;2023-05-02T05:06:32;11.20;99.90
20833;DHT22;56075;51.264;7.150;2023-05-02T05:09:04;11.20;99.90
20833;DHT22;56075;51.264;7.150;2023-05-02T05:11:37;11.00;99.90
20833;DHT22;56075;51.264;7.150;2023-05-02T05:14:10;11.20;99.90
20833;DHT22;56075;51.264;7.150;2023-05-02T05:16:43;11.10;99.90
20833;DHT22;56075;51.264;7.150;2023-05-02T05:19:14;11.10;99.90
20833;DHT22;56075;51.264;7.150;2023-05-02T05:21:45;11.00;99.90
20833;DHT22;56075;51.264;7.150;2023-05-02T05:24:20;11.00;99.90
20833;DHT22;56075;51.264;7.150;2023-05-02T05:26:52;10.90;99.90
20833;DHT22;56075;51.264;7.150;2023-05-02T05:29:23;10.90;99.90
20833;DHT22;56075;51.264;7.150;2023-05-02T05:31:55;10.90;99.90
20833;DHT22;56075;51.264;7.150;2023-05-02T05:34:26;10.80;99.90
20833;DHT22;56075;51.264;7.150;2023-05-02T05:37:01;10.80;99.90
20833;DHT22;56075;51.264;7.150;2023-05-02T05:39:32;10.90;99.90
20833;DHT22;56075;51.264;7.150;2023-05-02T05:42:05;10.60;99.90
20833;DHT22;56075;51.264;7.150;2023-05-02T05:44:39;10.70;99.90
20833;DHT22;56075;51.264;7.150;2023-05-02T05:47:10;10.50;99.90
20833;DHT22;56075;51.264;7.150;2023-05-02T05:49:42;10.70;99.90
20833;DHT22;56075;51.264;7.150;2023-05-02T05:52:15;10.40;99.90
20833;DHT22;56075;51.264;7.150;2023-05-02T05:54:46;10.40;99.90
20833;DHT22;56075;51.264;7.150;2023-05-02T06:04:53;10.60;99.90
20833;DHT22;56075;51.264;7.150;2023-05-02T06:07:27;10.60;99.90
20833;DHT22;56075;51.264;7.150;2023-05-02T06:09:58;10.60;99.90
20833;DHT22;56075;51.264;7.150;2023-05-02T06:12:30;10.70;99.90
20833;DHT22;56075;51.264;7.150;2023-05-02T06:15:01;10.60;99.90
20833;DHT22;56075;51.264;7.150;2023-05-02T06:17:33;10.60;99.90
20833;DHT22;56075;51.264;7.150;2023-05-02T06:20:04;10.40;99.90
20833;DHT22;56075;51.264;7.150;2023-05-02T06:22:36;10.50;99.90
20833;DHT22;56075;51.264;7.150;2023-05-02T06:25:07;10.30;99.90
20833;DHT22;56075;51.264;7.150;2023-05-02T06:30:10;10.40;99.90
20833;DHT22;56075;51.264;7.150;2023-05-02T06:32:42;10.40;99.90
20833;DHT22;56075;51.264;7.150;2023-05-02T06:35:13;10.40;99.90
20833;DHT22;56075;51.264;7.150;2023-05-02T06:37:45;10.40;99.90
20833;DHT22;56075;51.264;7.150;2023-05-02T06:40:16;10.40;99.90
20833;DHT22;56075;51.264;7.150;2023-05-02T06:42:47;10.40;99.90
20833;DHT22;56075;51.264;7.150;2023-05-02T06:45:18;10.40;99.90
20833;DHT22;56075;51.264;7.150;2023-05-02T06:47:49;10.30;99.90
20833;DHT22;56075;51.264;7.150;2023-05-02T06:50:20;10.70;99.90
20833;DHT22;56075;51.264;7.150;2023-05-02T06:55:23;10.50;99.90
20833;DHT22;56075;51.264;7.150;2023-05-02T06:57:55;10.60;99.90
20833;DHT22;56075;51.264;7.150;2023-05-02T07:00:26;10.40;99.90
20833;DHT22;56075;51.264;7.150;2023-05-02T07:02:57;10.60;99.90
20833;DHT22;56075;51.264;7.150;2023-05-02T07:05:28;10.70;99.90
20833;DHT22;56075;51.264;7.150;2023-05-02T07:07:59;10.80;99.90
20833;DHT22;56075;51.264;7.150;2023-05-02T07:10:30;10.90;99.90
20833;DHT22;56075;51.264;7.150;2023-05-02T07:13:01;11.10;99.90
20833;DHT22;56075;51.264;7.150;2023-05-02T07:15:33;11.00;99.90
20833;DHT22;56075;51.264;7.150;2023-05-02T07:18:04;11.20;99.90
20833;DHT22;56075;51.264;7.150;2023-05-02T07:20:36;11.50;99.90
20833;DHT22;56075;51.264;7.150;2023-05-02T07:23:08;11.40;99.90
20833;DHT22;56075;51.264;7.150;2023-05-02T07:25:39;12.10;99.90
20833;DHT22;56075;51.264;7.150;2023-05-02T07:28:11;13.30;99.90
20833;DHT22;56075;51.264;7.150;2023-05-02T07:30:42;11.60;99.90
20833;DHT22;56075;51.264;7.150;2023-05-02T07:33:13;11.50;99.90
20833;DHT22;56075;51.264;7.150;2023-05-02T07:35:45;11.80;99.90
20833;DHT22;56075;51.264;7.150;2023-05-02T07:38:17;12.10;99.90
20833;DHT22;56075;51.264;7.150;2023-05-02T07:40:48;12.50;99.90
20833;DHT22;56075;51.264;7.150;2023-05-02T07:43:19;11.80;99.90
20833;DHT22;56075;51.264;7.150;2023-05-02T07:45:50;12.20;99.90
20833;DHT22;56075;51.264;7.150;2023-05-02T07:48:21;11.40;99.90
20833;DHT22;56075;51.264;7.150;2023-05-02T07:50:52;13.20;99.90
20833;DHT22;56075;51.264;7.150;2023-05-02T07:53:23;12.40;99.90
20833;DHT22;56075;51.264;7.150;2023-05-02T07:55:55;13.10;99.90
20833;DHT22;56075;51.264;7.150;2023-05-02T07:58:26;13.80;99.90
20833;DHT22;56075;51.264;7.150;2023-05-02T08:00:58;12.10;99.90
20833;DHT22;56075;51.264;7.150;2023-05-02T08:03:29;12.20;99.90
20833;DHT22;56075;51.264;7.150;2023-05-02T08:06:00;13.90;99.90
20833;DHT22;56075;51.264;7.150;2023-05-02T08:08:32;12.00;99.90
20833;DHT22;56075;51.264;7.150;2023-05-02T08:11:03;11.50;99.90
20833;DHT22;56075;51.264;7.150;2023-05-02T08:13:34;12.80;99.90
20833;DHT22;56075;51.264;7.150;2023-05-02T08:16:05;11.40;99.90
20833;DHT22;56075;51.264;7.150;2023-05-02T08:18:36;11.50;99.90
20833;DHT22;56075;51.264;7.150;2023-05-02T08:21:07;11.50;99.90
20833;DHT22;56075;51.264;7.150;2023-05-02T08:23:40;11.20;99.90
20833;DHT22;56075;51.264;7.150;2023-05-02T08:26:11;10.90;99.90
20833;DHT22;56075;51.264;7.150;2023-05-02T08:28:42;11.00;99.90
20833;DHT22;56075;51.264;7.150;2023-05-02T08:31:13;10.60;99.90
20833;DHT22;56075;51.264;7.150;2023-05-02T08:33:45;10.80;99.90
20833;DHT22;56075;51.264;7.150;2023-05-02T08:36:17;10.70;99.90
20833;DHT22;56075;51.264;7.150;2023-05-02T08:38:48;10.50;99.90
20833;DHT22;56075;51.264;7.150;2023-05-02T08:41:21;10.60;99.90
20833;DHT22;56075;51.264;7.150;2023-05-02T08:43:52;10.60;99.90
20833;DHT22;56075;51.264;7.150;2023-05-02T08:46:24;10.40;99.90
20833;DHT22;56075;51.264;7.150;2023-05-02T08:48:56;10.40;99.90
20833;DHT22;56075;51.264;7.150;2023-05-02T08:51:30;10.10;99.90
20833;DHT22;56075;51.264;7.150;2023-05-02T08:54:02;10.00;99.90
20833;DHT22;56075;51.264;7.150;2023-05-02T08:56:34;10.40;99.90
20833;DHT22;56075;51.264;7.150;2023-05-02T08:59:05;10.60;99.90
20833;DHT22;56075;51.264;7.150;2023-05-02T09:01:39;10.30;99.90
20833;DHT22;56075;51.264;7.150;2023-05-02T09:04:11;10.60;99.90
20833;DHT22;56075;51.264;7.150;2023-05-02T09:06:42;10.90;99.90
20833;DHT22;56075;51.264;7.150;2023-05-02T09:09:14;11.40;99.90
20833;DHT22;56075;51.264;7.150;2023-05-02T09:11:46;11.50;99.90
20833;DHT22;56075;51.264;7.150;2023-05-02T09:14:17;11.50;99.90
20833;DHT22;56075;51.264;7.150;2023-05-02T09:16:49;11.60;99.90
20833;DHT22;56075;51.264;7.150;2023-05-02T09:19:24;13.00;99.90
20833;DHT22;56075;51.264;7.150;2023-05-02T09:22:00;12.10;99.90
20833;DHT22;56075;51.264;7.150;2023-05-02T09:24:31;12.20;99.90
20833;DHT22;56075;51.264;7.150;2023-05-02T09:27:03;12.40;99.90
20833;DHT22;56075;51.264;7.150;2023-05-02T09:29:35;12.40;99.90
20833;DHT22;56075;51.264;7.150;2023-05-02T09:32:07;12.50;99.90
20833;DHT22;56075;51.264;7.150;2023-05-02T09:34:38;12.40;99.90
20833;DHT22;56075;51.264;7.150;2023-05-02T09:37:10;13.80;99.90
20833;DHT22;56075;51.264;7.150;2023-05-02T09:40:04;12.00;99.90
20833;DHT22;56075;51.264;7.150;2023-05-02T09:42:36;12.00;99.90
20833;DHT22;56075;51.264;7.150;2023-05-02T09:45:07;11.80;99.90
20833;DHT22;56075;51.264;7.150;2023-05-02T09:47:40;11.70;99.90
20833;DHT22;56075;51.264;7.150;2023-05-02T09:50:11;13.40;99.90
20833;DHT22;56075;51.264;7.150;2023-05-02T09:53:00;11.40;99.90
20833;DHT22;56075;51.264;7.150;2023-05-02T09:55:34;11.60;99.90
20833;DHT22;56075;51.264;7.150;2023-05-02T09:58:06;11.20;99.90
20833;DHT22;56075;51.264;7.150;2023-05-02T10:00:42;11.10;99.90
20833;DHT22;56075;51.264;7.150;2023-05-02T10:03:15;11.20;99.90
20833;DHT22;56075;51.264;7.150;2023-05-02T10:05:47;12.10;99.90
20833;DHT22;56075;51.264;7.150;2023-05-02T10:08:20;13.10;99.90
20833;DHT22;56075;51.264;7.150;2023-05-02T10:10:56;11.20;99.90
20833;DHT22;56075;51.264;7.150;2023-05-02T10:13:27;11.50;99.90
20833;DHT22;56075;51.264;7.150;2023-05-02T10:16:03;12.80;99.90
20833;DHT22;56075;51.264;7.150;2023-05-02T10:18:51;11.80;99.90
20833;DHT22;56075;51.264;7.150;2023-05-02T10:21:26;11.90;99.90
20833;DHT22;56075;51.264;7.150;2023-05-02T10:23:58;13.10;99.90
20833;DHT22;56075;51.264;7.150;2023-05-02T10:26:33;12.20;99.90
20833;DHT22;56075;51.264;7.150;2023-05-02T10:29:05;12.40;99.90
20833;DHT22;56075;51.264;7.150;2023-05-02T10:31:36;12.90;99.90
20833;DHT22;56075;51.264;7.150;2023-05-02T10:34:10;13.60;99.90
20833;DHT22;56075;51.264;7.150;2023-05-02T10:36:41;13.90;99.90
20833;DHT22;56075;51.264;7.150;2023-05-02T10:39:13;14.30;99.90
20833;DHT22;56075;51.264;7.150;2023-05-02T10:41:44;14.60;99.90
20833;DHT22;56075;51.264;7.150;2023-05-02T10:44:17;14.40;99.90
20833;DHT22;56075;51.264;7.150;2023-05-02T10:46:49;13.10;99.90
20833;DHT22;56075;51.264;7.150;2023-05-02T10:49:20;12.90;99.90
20833;DHT22;56075;51.264;7.150;2023-05-02T10:51:53;13.10;99.90
20833;DHT22;56075;51.264;7.150;2023-05-02T10:54:25;13.20;99.90
20833;DHT22;56075;51.264;7.150;2023-05-02T10:59:40;13.20;99.90
20833;DHT22;56075;51.264;7.150;2023-05-02T11:05:02;13.90;99.90
20833;DHT22;56075;51.264;7.150;2023-05-02T11:07:37;13.90;99.90
20833;DHT22;56075;51.264;7.150;2023-05-02T11:12:56;14.50;99.90
20833;DHT22;56075;51.264;7.150;2023-05-02T11:18:10;14.50;99.90
20833;DHT22;56075;51.264;7.150;2023-05-02T11:20:44;14.60;99.90
20833;DHT22;56075;51.264;7.150;2023-05-02T11:25:52;15.80;99.90
20833;DHT22;56075;51.264;7.150;2023-05-02T11:31:09;14.80;99.90
20833;DHT22;56075;51.264;7.150;2023-05-02T11:33:40;15.00;99.90
20833;DHT22;56075;51.264;7.150;2023-05-02T11:36:11;14.40;99.90
20833;DHT22;56075;51.264;7.150;2023-05-02T11:38:42;15.50;99.90
20833;DHT22;56075;51.264;7.150;2023-05-02T11:41:14;16.00;99.90
20833;DHT22;56075;51.264;7.150;2023-05-02T11:43:45;15.10;99.90
20833;DHT22;56075;51.264;7.150;2023-05-02T11:46:16;14.50;99.90
20833;DHT22;56075;51.264;7.150;2023-05-02T11:48:50;14.90;99.90
20833;DHT22;56075;51.264;7.150;2023-05-02T11:51:24;14.00;99.90
20833;DHT22;56075;51.264;7.150;2023-05-02T11:53:56;14.50;99.90
20833;DHT22;56075;51.264;7.150;2023-05-02T11:56:27;13.60;99.90
20833;DHT22;56075;51.264;7.150;2023-05-02T11:58:59;13.60;99.90
20833;DHT22;56075;51.264;7.150;2023-05-02T12:01:31;14.10;99.90
20833;DHT22;56075;51.264;7.150;2023-05-02T12:04:03;11.20;99.90
20833;DHT22;56075;51.264;7.150;2023-05-02T12:06:34;13.20;99.90
20833;DHT22;56075;51.264;7.150;2023-05-02T12:09:14;12.90;99.90
20833;DHT22;56075;51.264;7.150;2023-05-02T12:11:53;13.00;99.90
20833;DHT22;56075;51.264;7.150;2023-05-02T12:14:28;13.70;99.90
20833;DHT22;56075;51.264;7.150;2023-05-02T12:17:02;14.60;99.90
20833;DHT22;56075;51.264;7.150;2023-05-02T12:19:33;14.70;99.90
20833;DHT22;56075;51.264;7.150;2023-05-02T12:22:07;14.50;99.90
20833;DHT22;56075;51.264;7.150;2023-05-02T12:24:39;13.10;99.90
20833;DHT22;56075;51.264;7.150;2023-05-02T12:27:15;14.30;99.90
20833;DHT22;56075;51.264;7.150;2023-05-02T12:29:47;15.20;99.90
20833;DHT22;56075;51.264;7.150;2023-05-02T12:32:29;13.80;99.90
20833;DHT22;56075;51.264;7.150;2023-05-02T12:35:02;13.70;99.90
20833;DHT22;56075;51.264;7.150;2023-05-02T12:37:33;13.80;99.90
20833;DHT22;56075;51.264;7.150;2023-05-02T12:40:14;15.10;99.90
20833;DHT22;56075;51.264;7.150;2023-05-02T12:45:33;14.30;99.90
20833;DHT22;56075;51.264;7.150;2023-05-02T12:50:53;14.90;99.90
20833;DHT22;56075;51.264;7.150;2023-05-02T12:53:40;16.30;99.90
20833;DHT22;56075;51.264;7.150;2023-05-02T12:56:12;16.70;99.90
20833;DHT22;56075;51.264;7.150;2023-05-02T12:58:46;17.30;99.90
20833;DHT22;56075;51.264;7.150;2023-05-02T13:01:17;17.70;99.90
20833;DHT22;56075;51.264;7.150;2023-05-02T13:03:50;18.70;99.90
20833;DHT22;56075;51.264;7.150;2023-05-02T13:06:21;17.90;99.90
20833;DHT22;56075;51.264;7.150;2023-05-02T13:08:52;19.50;99.90
20833;DHT22;56075;51.264;7.150;2023-05-02T13:11:23;17.50;99.90
20833;DHT22;56075;51.264;7.150;2023-05-02T13:13:55;17.20;99.90
20833;DHT22;56075;51.264;7.150;2023-05-02T13:16:26;17.10;99.90
20833;DHT22;56075;51.264;7.150;2023-05-02T13:18:58;18.20;99.90
20833;DHT22;56075;51.264;7.150;2023-05-02T13:21:29;17.10;99.90
20833;DHT22;56075;51.264;7.150;2023-05-02T13:24:01;16.90;99.90
20833;DHT22;56075;51.264;7.150;2023-05-02T13:26:33;17.20;99.90
20833;DHT22;56075;51.264;7.150;2023-05-02T13:29:05;18.20;99.90
20833;DHT22;56075;51.264;7.150;2023-05-02T13:31:36;16.80;99.90
20833;DHT22;56075;51.264;7.150;2023-05-02T13:34:07;17.40;99.90
20833;DHT22;56075;51.264;7.150;2023-05-02T13:36:38;17.30;99.90
20833;DHT22;56075;51.264;7.150;2023-05-02T13:39:15;17.50;99.90
20833;DHT22;56075;51.264;7.150;2023-05-02T13:41:46;18.80;99.90
20833;DHT22;56075;51.264;7.150;2023-05-02T13:44:18;18.00;99.90
20833;DHT22;56075;51.264;7.150;2023-05-02T13:46:49;17.90;99.90
20833;DHT22;56075;51.264;7.150;2023-05-02T13:49:20;18.20;99.90
20833;DHT22;56075;51.264;7.150;2023-05-02T13:51:51;17.70;99.90
20833;DHT22;56075;51.264;7.150;2023-05-02T13:54:22;17.70;99.90
20833;DHT22;56075;51.264;7.150;2023-05-02T13:56:54;18.30;99.90
20833;DHT22;56075;51.264;7.150;2023-05-02T13:59:25;18.90;99.80
20833;DHT22;56075;51.264;7.150;2023-05-02T14:01:56;18.80;99.00
20833;DHT22;56075;51.264;7.150;2023-05-02T14:04:27;19.50;98.50
20833;DHT22;56075;51.264;7.150;2023-05-02T14:06:59;19.60;97.80
20833;DHT22;56075;51.264;7.150;2023-05-02T14:09:30;20.30;97.20
20833;DHT22;56075;51.264;7.150;2023-05-02T14:12:01;20.90;96.50
20833;DHT22;56075;51.264;7.150;2023-05-02T14:14:32;20.90;95.90
20833;DHT22;56075;51.264;7.150;2023-05-02T14:17:05;21.20;95.10
20833;DHT22;56075;51.264;7.150;2023-05-02T14:19:37;22.00;94.70
20833;DHT22;56075;51.264;7.150;2023-05-02T14:22:08;21.60;94.10
20833;DHT22;56075;51.264;7.150;2023-05-02T14:24:39;22.40;93.60
20833;DHT22;56075;51.264;7.150;2023-05-02T14:27:10;22.50;93.10
20833;DHT22;56075;51.264;7.150;2023-05-02T14:29:44;21.70;92.50
20833;DHT22;56075;51.264;7.150;2023-05-02T14:32:16;22.20;91.80
20833;DHT22;56075;51.264;7.150;2023-05-02T14:34:47;21.90;91.80
20833;DHT22;56075;51.264;7.150;2023-05-02T14:37:18;21.50;91.60
20833;DHT22;56075;51.264;7.150;2023-05-02T14:39:49;21.80;91.10
20833;DHT22;56075;51.264;7.150;2023-05-02T14:42:22;21.70;90.70
20833;DHT22;56075;51.264;7.150;2023-05-02T14:44:53;21.40;90.50
20833;DHT22;56075;51.264;7.150;2023-05-02T14:47:27;21.30;90.50
20833;DHT22;56075;51.264;7.150;2023-05-02T14:49:58;21.00;90.60
20833;DHT22;56075;51.264;7.150;2023-05-02T14:52:29;20.70;90.70
20833;DHT22;56075;51.264;7.150;2023-05-02T14:55:01;21.00;90.50
20833;DHT22;56075;51.264;7.150;2023-05-02T14:57:32;21.30;90.30
20833;DHT22;56075;51.264;7.150;2023-05-02T15:00:05;21.50;89.70
20833;DHT22;56075;51.264;7.150;2023-05-02T15:02:40;21.20;88.90
20833;DHT22;56075;51.264;7.150;2023-05-02T15:05:11;21.70;90.20
20833;DHT22;56075;51.264;7.150;2023-05-02T15:07:42;20.70;90.10
20833;DHT22;56075;51.264;7.150;2023-05-02T15:10:14;20.70;90.00
20833;DHT22;56075;51.264;7.150;2023-05-02T15:12:45;20.40;90.00
20833;DHT22;56075;51.264;7.150;2023-05-02T15:15:20;20.60;90.40
20833;DHT22;56075;51.264;7.150;2023-05-02T15:17:54;19.90;90.30
20833;DHT22;56075;51.264;7.150;2023-05-02T15:20:26;20.20;90.00
20833;DHT22;56075;51.264;7.150;2023-05-02T15:22:57;20.60;89.80
20833;DHT22;56075;51.264;7.150;2023-05-02T15:25:33;20.50;89.20
20833;DHT22;56075;51.264;7.150;2023-05-02T15:28:04;21.70;88.40
20833;DHT22;56075;51.264;7.150;2023-05-02T15:30:35;22.50;88.20
20833;DHT22;56075;51.264;7.150;2023-05-02T15:33:06;21.70;86.70
20833;DHT22;56075;51.264;7.150;2023-05-02T15:35:37;22.20;85.40
20833;DHT22;56075;51.264;7.150;2023-05-02T15:38:08;22.50;84.70
20833;DHT22;56075;51.264;7.150;2023-05-02T15:40:40;22.50;84.10
20833;DHT22;56075;51.264;7.150;2023-05-02T15:43:11;22.70;83.60
20833;DHT22;56075;51.264;7.150;2023-05-02T15:45:42;23.20;83.30
20833;DHT22;56075;51.264;7.150;2023-05-02T15:48:13;23.50;82.20
20833;DHT22;56075;51.264;7.150;2023-05-02T15:50:44;23.50;81.00
20833;DHT22;56075;51.264;7.150;2023-05-02T15:53:17;23.40;81.00
20833;DHT22;56075;51.264;7.150;2023-05-02T15:55:50;22.90;81.20
20833;DHT22;56075;51.264;7.150;2023-05-02T15:58:22;22.60;81.10
20833;DHT22;56075;51.264;7.150;2023-05-02T16:00:53;22.60;81.40
20833;DHT22;56075;51.264;7.150;2023-05-02T16:03:25;22.40;81.40
20833;DHT22;56075;51.264;7.150;2023-05-02T16:05:57;21.80;81.70
20833;DHT22;56075;51.264;7.150;2023-05-02T16:08:32;21.40;81.80
20833;DHT22;56075;51.264;7.150;2023-05-02T16:11:03;21.10;83.00
20833;DHT22;56075;51.264;7.150;2023-05-02T16:13:35;21.20;83.20
20833;DHT22;56075;51.264;7.150;2023-05-02T16:16:06;22.30;84.40
20833;DHT22;56075;51.264;7.150;2023-05-02T16:18:37;21.50;82.60
20833;DHT22;56075;51.264;7.150;2023-05-02T16:21:08;21.80;82.00
20833;DHT22;56075;51.264;7.150;2023-05-02T16:23:39;22.50;81.00
20833;DHT22;56075;51.264;7.150;2023-05-02T16:26:11;22.60;80.30
20833;DHT22;56075;51.264;7.150;2023-05-02T16:28:42;23.00;79.70
20833;DHT22;56075;51.264;7.150;2023-05-02T16:31:13;22.60;79.10
20833;DHT22;56075;51.264;7.150;2023-05-02T16:33:44;22.40;79.20
20833;DHT22;56075;51.264;7.150;2023-05-02T16:36:16;21.90;79.40
20833;DHT22;56075;51.264;7.150;2023-05-02T16:38:48;21.30;80.10
20833;DHT22;56075;51.264;7.150;2023-05-02T16:41:19;20.90;80.20
20833;DHT22;56075;51.264;7.150;2023-05-02T16:43:51;20.70;80.80
20833;DHT22;56075;51.264;7.150;2023-05-02T16:46:22;20.60;81.00
20833;DHT22;56075;51.264;7.150;2023-05-02T16:48:53;20.00;81.70
20833;DHT22;56075;51.264;7.150;2023-05-02T16:51:24;19.70;82.40
20833;DHT22;56075;51.264;7.150;2023-05-02T16:53:55;19.50;82.80
20833;DHT22;56075;51.264;7.150;2023-05-02T16:56:27;19.20;83.70
20833;DHT22;56075;51.264;7.150;2023-05-02T16:58:59;19.90;84.80
20833;DHT22;56075;51.264;7.150;2023-05-02T17:01:30;18.50;85.60
20833;DHT22;56075;51.264;7.150;2023-05-02T17:04:04;18.10;85.40
20833;DHT22;56075;51.264;7.150;2023-05-02T17:06:35;18.10;85.80
20833;DHT22;56075;51.264;7.150;2023-05-02T17:09:06;17.70;86.10